Time,TemperatureF,DewpointF,PressureIn,WindDirection,WindDirectionDegrees,WindSpeedMPH,WindSpeedGustMPH,Humidity,HourlyPrecipIn,Conditions,Clouds,dailyrainin,SoftwareType,DateUTC
2013-06-29 00:00:00,84.5,66.6,29.83,SW,225,0.0,0.0,55,0.00,,SKC,0.00,VWS V14.01,2013-06-29 05:00:00,
2013-06-29 00:30:00,83.2,66.9,29.83,SW,225,0.0,0.0,58,0.00,,SKC,0.00,VWS V14.01,2013-06-29 05:30:00,
2013-06-29 01:00:00,82.5,67.2,29.84,SW,225,1.0,12.0,60,0.00,,SKC,0.00,VWS V14.01,2013-06-29 06:00:00,
2013-06-29 01:30:00,83.1,68.7,29.84,South,180,3.0,10.0,62,0.00,,SKC,0.00,VWS V14.01,2013-06-29 06:30:00,
2013-06-29 02:00:00,82.2,69.7,29.84,South,180,1.0,9.0,66,0.00,,SKC,0.00,VWS V14.01,2013-06-29 07:00:00,
2013-06-29 02:30:00,81.4,69.8,29.84,South,180,0.0,3.0,68,0.00,,SKC,0.00,VWS V14.01,2013-06-29 07:30:00,
2013-06-29 03:00:00,80.7,70.0,29.85,South,180,0.0,4.0,70,0.00,,SKC,0.00,VWS V14.01,2013-06-29 08:00:00,
2013-06-29 03:30:00,80.1,69.9,29.85,South,180,0.0,2.0,71,0.00,,SKC,0.00,VWS V14.01,2013-06-29 08:30:00,
2013-06-29 04:00:00,79.5,69.7,29.85,South,180,0.0,1.0,72,0.00,,SKC,0.00,VWS V14.01,2013-06-29 09:00:00,
2013-06-29 04:30:00,79.4,70.0,29.85,South,180,1.0,4.0,73,0.00,,SKC,0.00,VWS V14.01,2013-06-29 09:30:00,
2013-06-29 05:00:00,79.0,70.0,29.84,South,180,0.0,1.0,74,0.00,,SKC,0.00,VWS V14.01,2013-06-29 10:00:00,
2013-06-29 05:30:00,78.4,69.8,29.85,South,180,0.0,2.0,75,0.00,,SKC,0.00,VWS V14.01,2013-06-29 10:30:00,
2013-06-29 06:00:00,77.8,69.6,29.86,South,180,0.0,1.0,76,0.00,,SKC,0.00,VWS V14.01,2013-06-29 11:00:00,
2013-06-29 06:30:00,77.0,69.2,29.86,South,180,0.0,0.0,77,0.00,,SKC,0.00,VWS V14.01,2013-06-29 11:30:00,
2013-06-29 07:00:00,76.1,68.8,29.86,NE,45,0.0,1.0,78,0.00,,SKC,0.00,VWS V14.01,2013-06-29 12:00:00,
2013-06-29 07:30:00,76.2,69.6,29.87,ESE,112,0.0,1.0,80,0.00,,SKC,0.00,VWS V14.01,2013-06-29 12:30:00,
2013-06-29 08:00:00,78.5,69.9,29.87,ENE,68,0.0,3.0,75,0.00,,SKC,0.00,VWS V14.01,2013-06-29 13:00:00,
2013-06-29 08:30:00,81.2,70.9,29.88,ENE,68,1.0,4.0,71,0.00,,SKC,0.00,VWS V14.01,2013-06-29 13:30:00,
2013-06-29 09:00:00,83.3,71.6,29.88,West,270,1.0,7.0,68,0.00,,SKC,0.00,VWS V14.01,2013-06-29 14:00:00,
2013-06-29 09:30:00,85.7,71.2,29.87,WSW,248,2.0,11.0,62,0.00,,SKC,0.00,VWS V14.01,2013-06-29 14:30:00,
2013-06-29 10:00:00,88.0,71.9,29.87,SSW,202,3.0,10.0,59,0.00,,SKC,0.00,VWS V14.01,2013-06-29 15:00:00,
2013-06-29 10:30:00,89.6,72.4,29.86,WSW,248,3.0,10.0,57,0.00,,SKC,0.00,VWS V14.01,2013-06-29 15:30:00,
2013-06-29 11:00:00,92.0,71.9,29.85,WSW,248,3.0,11.0,52,0.00,,SKC,0.00,VWS V14.01,2013-06-29 16:00:00,
2013-06-29 11:30:00,94.6,72.5,29.85,WSW,248,2.0,6.0,49,0.00,,SKC,0.00,VWS V14.01,2013-06-29 16:30:00,
2013-06-29 12:00:00,98.3,72.0,29.85,WSW,248,1.0,7.0,43,0.00,,SKC,0.00,VWS V14.01,2013-06-29 17:00:00,
2013-06-29 12:30:00,98.9,68.1,29.85,NW,315,2.0,10.0,37,0.00,,SKC,0.00,VWS V14.01,2013-06-29 17:30:00,
2013-06-29 13:00:00,101.1,66.7,29.83,WNW,292,2.0,10.0,33,0.00,,SKC,0.00,VWS V14.01,2013-06-29 18:00:00,
2013-06-29 13:30:00,102.1,66.7,29.82,North,0,2.0,11.0,32,0.00,,SKC,0.00,VWS V14.01,2013-06-29 18:30:00,
2013-06-29 14:00:00,102.8,66.4,29.81,North,0,4.0,13.0,31,0.00,,SKC,0.00,VWS V14.01,2013-06-29 19:00:00,
2013-06-29 14:30:00,104.4,66.8,29.80,North,0,2.0,10.0,30,0.00,,SKC,0.00,VWS V14.01,2013-06-29 19:30:00,
2013-06-29 15:00:00,105.9,64.0,29.79,NNW,338,2.0,8.0,26,0.00,,SKC,0.00,VWS V14.01,2013-06-29 20:00:00,
2013-06-29 15:30:00,105.8,67.0,29.78,NNW,338,3.0,11.0,29,0.00,,SKC,0.00,VWS V14.01,2013-06-29 20:30:00,
2013-06-29 16:00:00,106.8,65.8,29.76,NE,45,2.0,10.0,27,0.00,,SKC,0.00,VWS V14.01,2013-06-29 21:00:00,
2013-06-29 16:30:00,103.9,67.3,29.75,ENE,68,2.0,14.0,31,0.00,,SKC,0.00,VWS V14.01,2013-06-29 21:30:00,
2013-06-29 17:00:00,103.4,65.9,29.75,SSE,158,2.0,11.0,30,0.00,,SKC,0.00,VWS V14.01,2013-06-29 22:00:00,
2013-06-29 17:30:00,104.0,66.5,29.74,ESE,112,1.0,7.0,30,0.00,,SKC,0.00,VWS V14.01,2013-06-29 22:30:00,
2013-06-29 18:00:00,104.6,66.0,29.72,ESE,112,1.0,6.0,29,0.00,,SKC,0.00,VWS V14.01,2013-06-29 23:00:00,
2013-06-29 18:30:00,104.3,63.7,29.72,East,90,1.0,6.0,27,0.00,,SKC,0.00,VWS V14.01,2013-06-29 23:30:00,
2013-06-29 19:00:00,103.7,64.2,29.72,East,90,1.0,5.0,28,0.00,,SKC,0.00,VWS V14.01,2013-06-30 00:00:00,
2013-06-29 19:30:00,102.4,65.1,29.72,East,90,0.0,3.0,30,0.00,,SKC,0.00,VWS V14.01,2013-06-30 00:30:00,
2013-06-29 20:00:00,100.1,65.0,29.73,East,90,0.0,4.0,32,0.00,,SKC,0.00,VWS V14.01,2013-06-30 01:00:00,
2013-06-29 20:30:00,98.2,65.1,29.73,East,90,0.0,2.0,34,0.00,,SKC,0.00,VWS V14.01,2013-06-30 01:30:00,
2013-06-29 21:00:00,96.0,64.0,29.73,East,90,0.0,1.0,35,0.00,,SKC,0.00,VWS V14.01,2013-06-30 02:00:00,
2013-06-29 21:57:00,92.6,61.8,29.75,East,91,0.0,0.0,36,0.00,,SKC,0.00,VWS V14.01,2013-06-30 02:57:00,
2013-06-29 22:02:00,92.5,62.5,29.75,East,91,0.0,0.0,37,0.00,,SKC,0.00,VWS V14.01,2013-06-30 03:02:00,
2013-06-29 22:07:00,92.3,62.3,29.75,East,91,0.0,4.0,37,0.00,,SKC,0.00,VWS V14.01,2013-06-30 03:07:00,
2013-06-29 22:12:00,92.2,62.2,29.75,East,91,0.0,4.0,37,0.00,,SKC,0.00,VWS V14.01,2013-06-30 03:12:00,
2013-06-29 22:17:00,92.1,62.1,29.75,East,91,0.0,4.0,37,0.00,,SKC,0.00,VWS V14.01,2013-06-30 03:17:00,
2013-06-29 22:22:00,91.9,61.9,29.75,East,91,1.0,4.0,37,0.00,,SKC,0.00,VWS V14.01,2013-06-30 03:22:00,
2013-06-29 22:27:00,91.8,61.8,29.75,East,91,1.0,4.0,37,0.00,,SKC,0.00,VWS V14.01,2013-06-30 03:27:00,
2013-06-29 22:32:00,91.7,61.8,29.76,East,91,0.0,3.0,37,0.00,,SKC,0.00,VWS V14.01,2013-06-30 03:32:00,
2013-06-29 22:37:00,91.6,61.7,29.75,East,91,0.0,3.0,37,0.00,,SKC,0.00,VWS V14.01,2013-06-30 03:37:00,
2013-06-29 22:42:00,91.7,61.8,29.75,East,91,1.0,3.0,37,0.00,,SKC,0.00,VWS V14.01,2013-06-30 03:42:00,
2013-06-29 22:47:00,91.7,61.8,29.76,East,90,0.0,4.0,37,0.00,,SKC,0.00,VWS V14.01,2013-06-30 03:47:00,
2013-06-29 22:52:00,91.6,62.4,29.76,East,90,1.0,4.0,38,0.00,,SKC,0.00,VWS V14.01,2013-06-30 03:52:00,
2013-06-29 22:57:00,91.5,62.3,29.76,East,90,0.0,4.0,38,0.00,,SKC,0.00,VWS V14.01,2013-06-30 03:57:00,
2013-06-29 23:01:00,91.4,62.2,29.76,East,90,0.0,4.0,38,0.00,,SKC,0.00,VWS V14.01,2013-06-30 04:01:00,
2013-06-29 23:06:00,91.1,62.0,29.76,East,90,0.0,0.0,38,0.00,,SKC,0.00,VWS V14.01,2013-06-30 04:06:00,
2013-06-29 23:11:00,90.9,62.5,29.77,East,90,1.0,4.0,39,0.00,,SKC,0.00,VWS V14.01,2013-06-30 04:11:00,
2013-06-29 23:16:00,90.7,62.4,29.77,East,90,1.0,4.0,39,0.00,,SKC,0.00,VWS V14.01,2013-06-30 04:16:00,
2013-06-29 23:21:00,90.5,62.2,29.77,East,90,0.0,4.0,39,0.00,,SKC,0.00,VWS V14.01,2013-06-30 04:21:00,
2013-06-29 23:26:00,90.3,62.7,29.77,East,90,0.0,4.0,40,0.00,,SKC,0.00,VWS V14.01,2013-06-30 04:26:00,
2013-06-29 23:31:00,90.2,62.6,29.77,East,90,3.0,4.0,40,0.00,,SKC,0.00,VWS V14.01,2013-06-30 04:31:00,
2013-06-29 23:36:00,90.0,62.5,29.77,East,90,0.0,3.0,40,0.00,,SKC,0.00,VWS V14.01,2013-06-30 04:36:00,
2013-06-29 23:41:00,89.9,62.4,29.78,East,90,0.0,3.0,40,0.00,,SKC,0.00,VWS V14.01,2013-06-30 04:41:00,
2013-06-29 23:46:00,89.9,62.4,29.78,East,90,0.0,3.0,40,0.00,,SKC,0.00,VWS V14.01,2013-06-30 04:46:00,
2013-06-29 23:51:00,89.8,62.3,29.78,East,90,0.0,3.0,40,0.00,,SKC,0.00,VWS V14.01,2013-06-30 04:51:00,
2013-06-29 23:56:00,89.6,62.8,29.78,East,90,0.0,4.0,41,0.00,,SKC,0.00,VWS V14.01,2013-06-30 04:56:00,